createdAt,value
2023-06-09T00:00:40.416Z,14.4
2023-06-09T00:03:40.543Z,14.4
2023-06-09T00:06:40.445Z,14.5
2023-06-09T00:09:40.429Z,14.4
2023-06-09T00:12:40.416Z,14.4
2023-06-09T00:15:40.429Z,14.3
2023-06-09T00:18:40.432Z,14.4
2023-06-09T00:21:40.450Z,14.4
2023-06-09T00:24:40.451Z,14.3
2023-06-09T00:27:40.449Z,14.4
2023-06-09T00:30:40.805Z,14.3
2023-06-09T00:33:40.453Z,14.3
2023-06-09T00:36:40.472Z,14.3
2023-06-09T00:39:40.464Z,14.3
2023-06-09T00:42:40.479Z,14.3
2023-06-09T00:45:40.485Z,14.3
2023-06-09T00:48:40.487Z,14.2
2023-06-09T00:51:40.491Z,14.3
2023-06-09T00:54:40.499Z,14.3
2023-06-09T00:57:40.537Z,14.3
2023-06-09T01:00:40.526Z,14.3
2023-06-09T01:03:40.577Z,14.3
2023-06-09T01:06:40.526Z,14.2
2023-06-09T01:09:40.512Z,14.2
2023-06-09T01:12:40.522Z,14.2
2023-06-09T01:15:40.526Z,14.2
2023-06-09T01:18:40.532Z,14.1
2023-06-09T01:21:40.541Z,14.1
2023-06-09T01:24:40.537Z,14.1
2023-06-09T01:27:40.549Z,14.1
2023-06-09T01:30:40.536Z,14
2023-06-09T01:33:40.545Z,14
2023-06-09T01:36:40.563Z,13.9
2023-06-09T01:39:40.568Z,13.8
2023-06-09T01:42:40.563Z,13.8
2023-06-09T01:45:40.558Z,13.7
2023-06-09T01:48:40.567Z,13.7
2023-06-09T01:51:40.555Z,13.6
2023-06-09T01:54:40.572Z,13.6
2023-06-09T01:57:40.572Z,13.6
2023-06-09T02:00:40.567Z,13.6
2023-06-09T02:03:40.633Z,13.6
2023-06-09T02:06:40.584Z,13.5
2023-06-09T02:09:40.572Z,13.4
2023-06-09T02:12:40.590Z,13.3
2023-06-09T02:15:40.590Z,13.3
2023-06-09T02:18:40.580Z,13.3
2023-06-09T02:21:40.603Z,13.3
2023-06-09T02:24:40.589Z,13.3
2023-06-09T02:27:40.595Z,13.3
2023-06-09T02:30:40.597Z,13.3
2023-06-09T02:33:40.607Z,13.3
2023-06-09T02:36:40.620Z,13.2
2023-06-09T02:39:40.635Z,13.2
2023-06-09T02:42:40.651Z,13.1
2023-06-09T02:45:40.700Z,13
2023-06-09T02:48:40.676Z,13
2023-06-09T02:51:40.703Z,12.9
2023-06-09T02:54:40.692Z,12.9
2023-06-09T02:57:40.706Z,12.9
2023-06-09T03:00:40.713Z,12.9
2023-06-09T03:03:40.726Z,12.9
2023-06-09T03:06:40.741Z,12.9
2023-06-09T03:09:40.727Z,12.9
2023-06-09T03:12:40.734Z,12.9
2023-06-09T03:15:40.740Z,13
2023-06-09T03:18:41.000Z,12.9
2023-06-09T03:21:40.759Z,12.9
2023-06-09T03:24:40.760Z,12.8
2023-06-09T03:27:40.758Z,12.8
2023-06-09T03:30:40.777Z,12.8
2023-06-09T03:33:40.772Z,12.7
2023-06-09T03:36:40.780Z,12.6
2023-06-09T03:39:40.783Z,12.6
2023-06-09T03:42:40.772Z,12.6
2023-06-09T03:45:40.798Z,12.5
2023-06-09T03:48:40.787Z,12.5
2023-06-09T03:51:40.807Z,12.4
2023-06-09T03:54:40.794Z,12.4
2023-06-09T03:57:40.820Z,12.4
2023-06-09T04:00:40.830Z,12.3
2023-06-09T04:03:40.882Z,12.3
2023-06-09T04:06:40.850Z,12.2
2023-06-09T04:09:40.841Z,12.1
2023-06-09T04:12:40.850Z,12.1
2023-06-09T04:15:40.870Z,12.1
2023-06-09T04:18:40.861Z,12
2023-06-09T04:21:40.875Z,12
2023-06-09T04:24:40.864Z,12
2023-06-09T04:27:40.877Z,12
2023-06-09T04:30:40.890Z,11.9
2023-06-09T04:33:40.888Z,11.9
2023-06-09T04:36:40.891Z,11.9
2023-06-09T04:39:40.888Z,11.9
2023-06-09T04:42:40.918Z,11.9
2023-06-09T04:45:40.910Z,11.9
2023-06-09T04:48:40.906Z,12
2023-06-09T04:51:40.916Z,12
2023-06-09T04:54:40.910Z,12
2023-06-09T04:57:40.917Z,12.1
2023-06-09T05:00:40.957Z,12
2023-06-09T05:03:40.929Z,12
2023-06-09T05:06:40.944Z,12.1
2023-06-09T05:09:40.932Z,12.3
2023-06-09T05:12:40.948Z,12.3
2023-06-09T05:15:40.954Z,12.2
2023-06-09T05:18:40.943Z,12.2
2023-06-09T05:21:40.946Z,12.2
2023-06-09T05:24:40.951Z,12.5
2023-06-09T05:27:40.949Z,12.6
2023-06-09T05:30:40.961Z,12.5
2023-06-09T05:33:41.865Z,12.4
2023-06-09T05:36:40.953Z,12.3
2023-06-09T05:39:40.967Z,12.3
2023-06-09T05:42:40.977Z,12.4
2023-06-09T05:45:40.992Z,12.3
2023-06-09T05:48:40.974Z,12.3
2023-06-09T05:51:40.981Z,12.1
2023-06-09T05:54:40.982Z,12.1
2023-06-09T05:57:40.984Z,12
2023-06-09T06:00:41.012Z,12
2023-06-09T06:03:41.109Z,12.1
2023-06-09T06:06:41.001Z,12.1
2023-06-09T06:09:41.004Z,12.1
2023-06-09T06:12:42.389Z,12
2023-06-09T06:15:41.043Z,11.9
2023-06-09T06:18:41.029Z,11.9
2023-06-09T06:21:41.031Z,11.9
2023-06-09T06:24:41.041Z,11.8
2023-06-09T06:27:41.037Z,11.8
2023-06-09T06:30:41.061Z,11.8
2023-06-09T06:33:41.050Z,11.8
2023-06-09T06:36:41.056Z,11.9
2023-06-09T06:39:41.077Z,11.9
2023-06-09T06:42:41.060Z,12
2023-06-09T06:45:41.085Z,11.9
2023-06-09T06:48:41.078Z,11.9
2023-06-09T06:51:41.080Z,12.1
2023-06-09T06:54:41.077Z,12.2
2023-06-09T06:57:41.101Z,12.2
2023-06-09T07:00:41.318Z,12.3
2023-06-09T07:03:41.221Z,12.4
2023-06-09T07:06:41.125Z,12.2
2023-06-09T07:09:41.148Z,12.3
2023-06-09T07:12:41.114Z,12.4
2023-06-09T07:15:41.112Z,12.4
2023-06-09T07:18:41.196Z,12.5
2023-06-09T07:21:41.119Z,12.5
2023-06-09T07:24:41.129Z,12.7
2023-06-09T07:27:41.128Z,12.8
2023-06-09T07:30:41.149Z,12.8
2023-06-09T07:33:41.138Z,12.9
2023-06-09T07:36:41.146Z,13.1
2023-06-09T07:39:41.394Z,13.1
2023-06-09T07:42:41.166Z,13
2023-06-09T07:45:41.179Z,13.1
2023-06-09T07:48:41.165Z,13.2
2023-06-09T07:51:41.168Z,13.1
2023-06-09T07:54:41.187Z,13.3
2023-06-09T07:57:41.179Z,13.4
2023-06-09T08:00:41.203Z,13.5
2023-06-09T08:03:41.261Z,13.6
2023-06-09T08:06:41.195Z,13.6
2023-06-09T08:09:41.194Z,13.6
2023-06-09T08:12:41.194Z,13.7
2023-06-09T08:15:41.216Z,13.8
2023-06-09T08:18:41.207Z,13.8
2023-06-09T08:21:41.217Z,14
2023-06-09T08:24:41.217Z,13.8
2023-06-09T08:27:41.233Z,14
2023-06-09T08:30:41.237Z,13.8
2023-06-09T08:33:41.226Z,13.8
2023-06-09T08:36:41.241Z,13.6
2023-06-09T08:39:41.881Z,13.8
2023-06-09T08:42:41.399Z,14.1
2023-06-09T08:45:41.298Z,14.5
2023-06-09T08:48:41.259Z,14.9
2023-06-09T08:51:41.256Z,14.8
2023-06-09T08:54:41.266Z,15
2023-06-09T08:57:42.712Z,15.2
2023-06-09T09:00:41.279Z,15.1
2023-06-09T09:03:41.281Z,14.6
2023-06-09T09:06:41.275Z,14.6
2023-06-09T09:09:41.283Z,14.9
2023-06-09T09:12:41.286Z,14.8
2023-06-09T09:15:41.337Z,14.3
2023-06-09T09:18:41.304Z,14.3
2023-06-09T09:21:41.308Z,14.1
2023-06-09T09:24:41.303Z,14.3
2023-06-09T09:27:41.308Z,14.1
2023-06-09T09:30:41.334Z,13.9
2023-06-09T09:33:41.334Z,14
2023-06-09T09:36:41.326Z,14.1
2023-06-09T09:39:41.334Z,13.9
2023-06-09T09:42:41.335Z,13.7
2023-06-09T09:45:41.361Z,13.8
2023-06-09T09:48:41.360Z,14
2023-06-09T09:51:41.356Z,14.2
2023-06-09T09:54:41.362Z,14.6
2023-06-09T09:57:41.368Z,14.9
2023-06-09T10:00:41.407Z,14.6
2023-06-09T10:03:41.479Z,14.6
2023-06-09T10:06:41.376Z,14.7
2023-06-09T10:09:41.554Z,14.7
2023-06-09T10:12:41.388Z,14.8
2023-06-09T10:15:41.401Z,14.7
2023-06-09T10:18:41.398Z,15
2023-06-09T10:21:41.394Z,15.2
2023-06-09T10:24:41.410Z,15.4
2023-06-09T10:27:41.415Z,15.1
2023-06-09T10:30:41.421Z,15.2
2023-06-09T10:33:41.433Z,15.1
2023-06-09T10:36:42.758Z,15.1
2023-06-09T10:39:41.426Z,15.4
2023-06-09T10:42:41.429Z,15.3
2023-06-09T10:45:41.442Z,15.3
2023-06-09T10:48:41.439Z,15.2
2023-06-09T10:51:41.438Z,15.1
2023-06-09T10:54:41.450Z,15
2023-06-09T10:57:41.453Z,14.8
2023-06-09T11:00:41.469Z,14.9
2023-06-09T11:03:41.494Z,15.1
2023-06-09T11:06:41.483Z,14.8
2023-06-09T11:09:41.474Z,15.1
2023-06-09T11:12:41.464Z,15.1
2023-06-09T11:15:41.495Z,14.9
2023-06-09T11:18:41.533Z,15.1
2023-06-09T11:21:41.486Z,15.5
2023-06-09T11:24:41.488Z,15.7
2023-06-09T11:27:41.493Z,15.6
2023-06-09T11:30:41.512Z,15.6
2023-06-09T11:33:41.511Z,15.2
2023-06-09T11:36:41.513Z,15
2023-06-09T11:39:41.508Z,15.3
2023-06-09T11:42:41.510Z,14.9
2023-06-09T11:45:41.810Z,14.5
2023-06-09T11:48:41.521Z,14.8
2023-06-09T11:51:41.528Z,14.6
2023-06-09T11:54:41.539Z,14.8
2023-06-09T11:57:41.546Z,14.5
2023-06-09T12:00:41.549Z,14.4
2023-06-09T12:03:41.555Z,14.1
2023-06-09T12:06:41.568Z,14.2
2023-06-09T12:09:41.563Z,14.3
2023-06-09T12:12:41.568Z,14.5
2023-06-09T12:15:41.577Z,14.4
2023-06-09T12:18:41.578Z,14.6
2023-06-09T12:21:41.602Z,14.8
2023-06-09T12:24:41.587Z,14.4
2023-06-09T12:27:41.588Z,14.1
2023-06-09T12:30:41.601Z,13.7
2023-06-09T12:33:41.643Z,13.7
2023-06-09T12:36:41.604Z,13.9
2023-06-09T12:39:41.674Z,14
2023-06-09T12:42:41.620Z,13.9
2023-06-09T12:45:41.630Z,13.7
2023-06-09T12:48:41.663Z,13.5
2023-06-09T12:51:43.201Z,13.9
2023-06-09T12:54:41.648Z,13.5
2023-06-09T12:57:42.394Z,13.2
2023-06-09T13:00:41.710Z,13.4
2023-06-09T13:03:41.718Z,13.2
2023-06-09T13:06:41.652Z,12.9
2023-06-09T13:09:41.663Z,12.3
2023-06-09T13:12:41.658Z,12.7
2023-06-09T13:15:41.734Z,12.8
2023-06-09T13:18:41.691Z,13
2023-06-09T13:21:44.791Z,12.5
2023-06-09T13:24:41.716Z,12.5
2023-06-09T13:27:41.719Z,12.4
2023-06-09T13:30:41.773Z,11.9
2023-06-09T13:33:41.756Z,12.2
2023-06-09T13:36:41.760Z,12.1
2023-06-09T13:39:41.757Z,12.4
2023-06-09T13:42:41.801Z,12
2023-06-09T13:45:41.951Z,11.6
2023-06-09T13:48:41.853Z,11.5
2023-06-09T13:51:41.770Z,11.2
2023-06-09T13:54:41.775Z,11.4
2023-06-09T13:57:41.764Z,11.3
2023-06-09T14:00:41.779Z,10.8
2023-06-09T14:03:41.843Z,10.7
2023-06-09T14:06:41.771Z,10.4
2023-06-09T14:09:41.774Z,10.6
2023-06-09T14:12:41.784Z,10.4
2023-06-09T14:15:41.788Z,10
2023-06-09T14:18:41.781Z,9.8
2023-06-09T14:21:41.779Z,9.4
2023-06-09T14:24:41.807Z,9.7
2023-06-09T14:27:41.782Z,9.4
2023-06-09T14:30:41.810Z,9.2
2023-06-09T14:33:41.787Z,8.8
2023-06-09T14:36:41.781Z,8.6
2023-06-09T14:39:41.788Z,8.1
2023-06-09T14:42:41.807Z,8.4
2023-06-09T14:45:41.831Z,8.3
2023-06-09T14:48:41.788Z,8.3
2023-06-09T14:51:41.792Z,7.8
2023-06-09T14:54:41.793Z,7.8
2023-06-09T14:57:41.790Z,7.9
2023-06-09T15:00:41.806Z,7.6
2023-06-09T15:03:41.820Z,7.5
2023-06-09T15:06:41.810Z,7.3
2023-06-09T15:09:41.803Z,7
2023-06-09T15:12:41.802Z,7.2
2023-06-09T15:15:41.865Z,7.5
2023-06-09T15:18:41.817Z,7.8
2023-06-09T15:21:41.812Z,7.6
2023-06-09T15:24:41.809Z,7.8
2023-06-09T15:27:41.812Z,7.7
2023-06-09T15:30:41.834Z,7.6
2023-06-09T15:33:41.820Z,7.6
2023-06-09T15:36:41.822Z,7.6
2023-06-09T15:39:41.827Z,7.7
2023-06-09T15:42:41.838Z,7.2
2023-06-09T15:45:41.848Z,7
2023-06-09T15:48:41.842Z,6.8
2023-06-09T15:51:41.846Z,6.2
2023-06-09T15:54:41.852Z,6.3
2023-06-09T15:57:41.848Z,6.7
2023-06-09T16:00:41.848Z,6.9
2023-06-09T16:03:41.894Z,6.9
2023-06-09T16:06:41.845Z,7
2023-06-09T16:09:41.847Z,7
2023-06-09T16:12:41.852Z,6.7
2023-06-09T16:15:41.866Z,6.4
2023-06-09T16:18:41.861Z,6.6
2023-06-09T16:21:41.869Z,6.3
2023-06-09T16:24:41.867Z,6.7
2023-06-09T16:27:41.876Z,6.3
2023-06-09T16:30:41.889Z,6.3
2023-06-09T16:33:41.874Z,6.4
2023-06-09T16:36:41.882Z,6.1
2023-06-09T16:39:41.892Z,6.1
2023-06-09T16:42:41.883Z,6.4
2023-06-09T16:45:41.902Z,6.1
2023-06-09T16:48:41.893Z,6.1
2023-06-09T16:51:41.899Z,6.5
2023-06-09T16:54:41.895Z,5.9
2023-06-09T16:57:41.901Z,6.3
2023-06-09T17:00:41.919Z,6.2
2023-06-09T17:03:41.963Z,6.2
2023-06-09T17:06:41.927Z,6.4
2023-06-09T17:09:41.919Z,6.5
2023-06-09T17:12:42.039Z,6.6
2023-06-09T17:15:41.932Z,6.8
2023-06-09T17:18:41.932Z,7
2023-06-09T17:21:41.950Z,7.2
2023-06-09T17:24:41.941Z,7.4
2023-06-09T17:27:41.948Z,7.8
2023-06-09T17:30:41.961Z,8.1
2023-06-09T17:33:41.955Z,8.3
2023-06-09T17:36:41.957Z,8.5
2023-06-09T17:39:41.967Z,8.6
2023-06-09T17:42:41.989Z,8.9
2023-06-09T17:45:42.022Z,9.1
2023-06-09T17:48:41.988Z,9.3
2023-06-09T17:51:41.998Z,9.5
2023-06-09T17:54:41.999Z,9.7
2023-06-09T17:57:42.004Z,9.9
2023-06-09T18:00:42.017Z,10.1
2023-06-09T18:03:42.042Z,10.1
2023-06-09T18:06:42.017Z,10.2
2023-06-09T18:09:42.022Z,10.3
2023-06-09T18:12:42.043Z,10.3
2023-06-09T18:15:42.089Z,10.2
2023-06-09T18:18:42.040Z,10.3
2023-06-09T18:21:42.064Z,10.1
2023-06-09T18:24:42.075Z,10
2023-06-09T18:27:42.077Z,9.8
2023-06-09T18:30:42.089Z,9.7
2023-06-09T18:33:42.078Z,9.5
2023-06-09T18:36:42.094Z,9.5
2023-06-09T18:39:42.094Z,9.6
2023-06-09T18:42:42.106Z,9.6
2023-06-09T18:45:42.101Z,9.7
2023-06-09T18:48:51.785Z,9.7
2023-06-09T18:51:42.125Z,9.7
2023-06-09T18:54:42.138Z,9.6
2023-06-09T18:57:42.130Z,9.7
2023-06-09T19:00:42.163Z,9.7
2023-06-09T19:03:42.188Z,9.8
2023-06-09T19:06:42.163Z,9.9
2023-06-09T19:09:42.171Z,10
2023-06-09T19:12:42.177Z,10
2023-06-09T19:15:42.204Z,10.2
2023-06-09T19:18:42.194Z,10.5
2023-06-09T19:21:42.231Z,10.7
2023-06-09T19:24:42.223Z,10.9
2023-06-09T19:27:42.222Z,11
2023-06-09T19:30:42.253Z,11
2023-06-09T19:33:42.244Z,11.1
2023-06-09T19:36:42.243Z,11.1
2023-06-09T19:39:42.251Z,11.2
2023-06-09T19:42:42.267Z,11.3
2023-06-09T19:45:42.281Z,11.2
2023-06-09T19:48:42.276Z,11.2
2023-06-09T19:51:42.282Z,11.2
2023-06-09T19:54:42.288Z,11
2023-06-09T19:57:42.294Z,10.9
2023-06-09T20:00:42.371Z,10.8
2023-06-09T20:03:42.328Z,10.8
2023-06-09T20:06:42.318Z,10.8
2023-06-09T20:09:42.317Z,10.8
2023-06-09T20:12:42.349Z,10.7
2023-06-09T20:15:42.355Z,10.7
2023-06-09T20:18:42.352Z,10.6
2023-06-09T20:21:42.357Z,10.4
2023-06-09T20:24:42.356Z,10.2
2023-06-09T20:27:42.364Z,9.9
2023-06-09T20:30:42.372Z,9.9
2023-06-09T20:33:42.365Z,9.8
2023-06-09T20:36:42.381Z,9.8
2023-06-09T20:39:42.378Z,9.7
2023-06-09T20:42:42.379Z,9.8
2023-06-09T20:45:42.401Z,9.8
2023-06-09T20:48:42.387Z,9.7
2023-06-09T20:51:42.392Z,9.6
2023-06-09T20:54:42.389Z,9.5
2023-06-09T20:57:42.402Z,9.4
2023-06-09T21:00:42.408Z,9.2
2023-06-09T21:03:42.466Z,9.1
2023-06-09T21:06:42.401Z,9
2023-06-09T21:09:42.402Z,8.9
2023-06-09T21:12:42.423Z,8.9
2023-06-09T21:15:42.467Z,8.8
2023-06-09T21:18:42.424Z,8.8
2023-06-09T21:21:42.431Z,8.8
2023-06-09T21:24:42.439Z,8.8
2023-06-09T21:27:42.450Z,8.8
2023-06-09T21:30:42.465Z,8.8
2023-06-09T21:33:42.457Z,8.8
2023-06-09T21:36:42.464Z,8.8
2023-06-09T21:39:42.462Z,8.8
2023-06-09T21:42:42.471Z,8.8
2023-06-09T21:45:42.493Z,8.8
2023-06-09T21:48:44.439Z,8.8
2023-06-09T21:51:42.489Z,8.9
2023-06-09T21:54:42.503Z,8.9
2023-06-09T21:57:42.493Z,8.8
2023-06-09T22:00:42.573Z,8.8
2023-06-09T22:03:42.522Z,8.9
2023-06-09T22:06:42.508Z,8.9
2023-06-09T22:09:42.513Z,8.9
2023-06-09T22:12:42.511Z,8.9
2023-06-09T22:15:42.529Z,9
2023-06-09T22:18:42.533Z,9
2023-06-09T22:21:42.532Z,9
2023-06-09T22:24:42.528Z,9.1
2023-06-09T22:27:42.528Z,9.2
2023-06-09T22:30:42.559Z,9.2
2023-06-09T22:33:42.534Z,9.2
2023-06-09T22:36:42.543Z,9.3
2023-06-09T22:39:42.579Z,9.4
2023-06-09T22:42:42.548Z,9.5
2023-06-09T22:45:42.573Z,9.5
2023-06-09T22:48:42.560Z,9.7
2023-06-09T22:51:42.559Z,9.7
2023-06-09T22:54:42.567Z,9.8
2023-06-09T22:57:42.662Z,9.8
2023-06-09T23:00:42.592Z,9.8
2023-06-09T23:03:42.596Z,9.9
2023-06-09T23:06:42.737Z,10.1
2023-06-09T23:09:42.599Z,10.4
2023-06-09T23:12:42.610Z,10.6
2023-06-09T23:15:42.615Z,10.7
2023-06-09T23:18:42.613Z,10.8
2023-06-09T23:21:42.617Z,11
2023-06-09T23:24:42.636Z,11
2023-06-09T23:27:42.620Z,11
2023-06-09T23:30:42.637Z,11
2023-06-09T23:33:42.634Z,11.1
2023-06-09T23:36:42.641Z,11.2
2023-06-09T23:39:42.634Z,11.2
2023-06-09T23:42:42.654Z,11.3
2023-06-09T23:45:42.744Z,11.3
2023-06-09T23:48:42.655Z,11.3
2023-06-09T23:51:42.657Z,11.4
2023-06-09T23:54:42.663Z,11.3
2023-06-09T23:57:42.672Z,11.4
